sensor_id;sensor_type;location;lat;lon;timestamp;P1;durP1;ratioP1;P2;durP2;ratioP2
65732;SDS011;70156;-35.366;149.082;2023-05-17T00:00:08;1.83;;;0.30;;
65732;SDS011;70156;-35.366;149.082;2023-05-17T00:02:35;3.15;;;0.25;;
65732;SDS011;70156;-35.366;149.082;2023-05-17T00:05:03;3.67;;;0.35;;
65732;SDS011;70156;-35.366;149.082;2023-05-17T00:07:46;1.55;;;0.30;;
65732;SDS011;70156;-35.366;149.082;2023-05-17T00:10:14;1.23;;;0.30;;
65732;SDS011;70156;-35.366;149.082;2023-05-17T00:12:41;0.73;;;0.20;;
65732;SDS011;70156;-35.366;149.082;2023-05-17T00:15:08;1.10;;;0.10;;
65732;SDS011;70156;-35.366;149.082;2023-05-17T00:18:34;0.73;;;0.28;;
65732;SDS011;70156;-35.366;149.082;2023-05-17T00:21:01;3.15;;;0.20;;
65732;SDS011;70156;-35.366;149.082;2023-05-17T00:23:28;2.67;;;0.30;;
65732;SDS011;70156;-35.366;149.082;2023-05-17T00:25:55;1.45;;;0.20;;
65732;SDS011;70156;-35.366;149.082;2023-05-17T00:28:22;0.55;;;0.13;;
65732;SDS011;70156;-35.366;149.082;2023-05-17T00:30:49;1.45;;;0.25;;
65732;SDS011;70156;-35.366;149.082;2023-05-17T00:33:16;1.80;;;0.10;;
65732;SDS011;70156;-35.366;149.082;2023-05-17T00:35:43;1.27;;;0.03;;
65732;SDS011;70156;-35.366;149.082;2023-05-17T00:38:10;1.67;;;0.22;;
65732;SDS011;70156;-35.366;149.082;2023-05-17T00:40:37;3.03;;;0.25;;
65732;SDS011;70156;-35.366;149.082;2023-05-17T00:43:04;0.20;;;0.08;;
65732;SDS011;70156;-35.366;149.082;2023-05-17T00:45:31;1.35;;;0.10;;
65732;SDS011;70156;-35.366;149.082;2023-05-17T00:47:58;2.45;;;0.10;;
65732;SDS011;70156;-35.366;149.082;2023-05-17T00:51:24;0.90;;;0.10;;
65732;SDS011;70156;-35.366;149.082;2023-05-17T00:53:51;2.70;;;0.40;;
65732;SDS011;70156;-35.366;149.082;2023-05-17T00:56:19;2.15;;;0.20;;
65732;SDS011;70156;-35.366;149.082;2023-05-17T00:58:48;4.32;;;0.20;;
65732;SDS011;70156;-35.366;149.082;2023-05-17T01:01:15;1.60;;;0.20;;
65732;SDS011;70156;-35.366;149.082;2023-05-17T01:03:43;1.35;;;0.10;;
65732;SDS011;70156;-35.366;149.082;2023-05-17T01:06:10;0.50;;;0.15;;
65732;SDS011;70156;-35.366;149.082;2023-05-17T01:08:37;1.08;;;0.20;;
65732;SDS011;70156;-35.366;149.082;2023-05-17T01:15:22;0.38;;;0.10;;
65732;SDS011;70156;-35.366;149.082;2023-05-17T01:20:45;1.08;;;0.30;;
65732;SDS011;70156;-35.366;149.082;2023-05-17T01:26:37;1.70;;;0.20;;
65732;SDS011;70156;-35.366;149.082;2023-05-17T01:29:10;0.68;;;0.10;;
65732;SDS011;70156;-35.366;149.082;2023-05-17T01:31:39;1.67;;;0.20;;
65732;SDS011;70156;-35.366;149.082;2023-05-17T01:34:08;2.83;;;0.20;;
65732;SDS011;70156;-35.366;149.082;2023-05-17T01:36:35;3.45;;;0.75;;
65732;SDS011;70156;-35.366;149.082;2023-05-17T01:39:02;1.58;;;0.15;;
65732;SDS011;70156;-35.366;149.082;2023-05-17T01:41:32;3.63;;;0.63;;
65732;SDS011;70156;-35.366;149.082;2023-05-17T01:49:11;1.95;;;0.15;;
65732;SDS011;70156;-35.366;149.082;2023-05-17T01:51:54;1.52;;;0.28;;
65732;SDS011;70156;-35.366;149.082;2023-05-17T01:54:42;0.70;;;0.10;;
65732;SDS011;70156;-35.366;149.082;2023-05-17T01:57:16;2.08;;;0.50;;
65732;SDS011;70156;-35.366;149.082;2023-05-17T02:02:17;0.68;;;0.20;;
65732;SDS011;70156;-35.366;149.082;2023-05-17T02:04:46;0.68;;;0.20;;
65732;SDS011;70156;-35.366;149.082;2023-05-17T02:07:15;1.75;;;0.20;;
65732;SDS011;70156;-35.366;149.082;2023-05-17T02:09:42;0.52;;;0.00;;
65732;SDS011;70156;-35.366;149.082;2023-05-17T02:12:10;1.75;;;0.20;;
65732;SDS011;70156;-35.366;149.082;2023-05-17T02:14:37;1.52;;;0.20;;
65732;SDS011;70156;-35.366;149.082;2023-05-17T02:17:04;1.52;;;0.30;;
65732;SDS011;70156;-35.366;149.082;2023-05-17T02:19:31;0.85;;;0.30;;
65732;SDS011;70156;-35.366;149.082;2023-05-17T02:21:58;2.60;;;0.10;;
65732;SDS011;70156;-35.366;149.082;2023-05-17T02:24:26;1.70;;;0.17;;
65732;SDS011;70156;-35.366;149.082;2023-05-17T02:26:53;0.60;;;0.20;;
65732;SDS011;70156;-35.366;149.082;2023-05-17T02:29:20;3.22;;;0.20;;
65732;SDS011;70156;-35.366;149.082;2023-05-17T02:31:47;0.98;;;0.20;;
65732;SDS011;70156;-35.366;149.082;2023-05-17T02:35:13;0.38;;;0.10;;
65732;SDS011;70156;-35.366;149.082;2023-05-17T02:37:40;2.25;;;0.30;;
65732;SDS011;70156;-35.366;149.082;2023-05-17T02:40:07;1.77;;;0.17;;
65732;SDS011;70156;-35.366;149.082;2023-05-17T02:42:35;1.90;;;0.35;;
65732;SDS011;70156;-35.366;149.082;2023-05-17T02:45:02;1.75;;;0.25;;
65732;SDS011;70156;-35.366;149.082;2023-05-17T02:47:30;1.48;;;0.13;;
65732;SDS011;70156;-35.366;149.082;2023-05-17T02:49:57;2.25;;;0.40;;
65732;SDS011;70156;-35.366;149.082;2023-05-17T02:52:24;1.55;;;0.10;;
65732;SDS011;70156;-35.366;149.082;2023-05-17T02:54:51;0.88;;;0.20;;
65732;SDS011;70156;-35.366;149.082;2023-05-17T02:57:18;2.83;;;0.10;;
65732;SDS011;70156;-35.366;149.082;2023-05-17T02:59:45;0.65;;;0.10;;
65732;SDS011;70156;-35.366;149.082;2023-05-17T03:02:12;7.10;;;0.40;;
65732;SDS011;70156;-35.366;149.082;2023-05-17T03:04:39;1.58;;;0.15;;
65732;SDS011;70156;-35.366;149.082;2023-05-17T03:07:06;1.80;;;0.10;;
65732;SDS011;70156;-35.366;149.082;2023-05-17T03:09:33;0.55;;;0.10;;
65732;SDS011;70156;-35.366;149.082;2023-05-17T03:12:02;4.15;;;0.20;;
65732;SDS011;70156;-35.366;149.082;2023-05-17T03:14:29;2.03;;;0.30;;
65732;SDS011;70156;-35.366;149.082;2023-05-17T03:16:56;0.65;;;0.00;;
65732;SDS011;70156;-35.366;149.082;2023-05-17T03:19:23;7.13;;;0.63;;
65732;SDS011;70156;-35.366;149.082;2023-05-17T03:21:50;2.40;;;0.25;;
65732;SDS011;70156;-35.366;149.082;2023-05-17T03:24:17;0.85;;;0.10;;
65732;SDS011;70156;-35.366;149.082;2023-05-17T03:26:44;1.17;;;0.00;;
65732;SDS011;70156;-35.366;149.082;2023-05-17T03:29:11;2.83;;;0.10;;
65732;SDS011;70156;-35.366;149.082;2023-05-17T03:31:38;1.02;;;0.13;;
65732;SDS011;70156;-35.366;149.082;2023-05-17T03:34:44;3.88;;;0.63;;
65732;SDS011;70156;-35.366;149.082;2023-05-17T03:37:24;2.45;;;0.10;;
65732;SDS011;70156;-35.366;149.082;2023-05-17T03:39:51;0.10;;;0.00;;
65732;SDS011;70156;-35.366;149.082;2023-05-17T03:42:18;0.68;;;0.20;;
65732;SDS011;70156;-35.366;149.082;2023-05-17T03:44:45;1.20;;;0.20;;
65732;SDS011;70156;-35.366;149.082;2023-05-17T03:47:12;1.73;;;0.10;;
65732;SDS011;70156;-35.366;149.082;2023-05-17T03:49:40;1.80;;;0.10;;
65732;SDS011;70156;-35.366;149.082;2023-05-17T03:52:07;0.40;;;0.10;;
65732;SDS011;70156;-35.366;149.082;2023-05-17T03:54:34;0.32;;;0.10;;
65732;SDS011;70156;-35.366;149.082;2023-05-17T03:57:02;1.98;;;0.20;;
65732;SDS011;70156;-35.366;149.082;2023-05-17T03:59:29;0.57;;;0.10;;
65732;SDS011;70156;-35.366;149.082;2023-05-17T04:01:56;1.02;;;0.17;;
65732;SDS011;70156;-35.366;149.082;2023-05-17T04:04:23;1.52;;;0.17;;
65732;SDS011;70156;-35.366;149.082;2023-05-17T04:06:53;1.77;;;0.28;;
65732;SDS011;70156;-35.366;149.082;2023-05-17T04:09:20;0.65;;;0.00;;
65732;SDS011;70156;-35.366;149.082;2023-05-17T04:11:47;0.50;;;0.15;;
65732;SDS011;70156;-35.366;149.082;2023-05-17T04:14:14;3.10;;;0.30;;
65732;SDS011;70156;-35.366;149.082;2023-05-17T04:17:40;1.60;;;0.10;;
65732;SDS011;70156;-35.366;149.082;2023-05-17T04:20:07;1.45;;;0.10;;
65732;SDS011;70156;-35.366;149.082;2023-05-17T04:22:35;1.17;;;0.17;;
65732;SDS011;70156;-35.366;149.082;2023-05-17T04:25:02;3.40;;;0.10;;
65732;SDS011;70156;-35.366;149.082;2023-05-17T04:27:29;1.67;;;0.20;;
65732;SDS011;70156;-35.366;149.082;2023-05-17T04:29:56;1.00;;;0.20;;
65732;SDS011;70156;-35.366;149.082;2023-05-17T04:32:23;2.05;;;0.20;;
65732;SDS011;70156;-35.366;149.082;2023-05-17T04:34:50;5.82;;;0.22;;
65732;SDS011;70156;-35.366;149.082;2023-05-17T04:37:17;1.30;;;0.20;;
65732;SDS011;70156;-35.366;149.082;2023-05-17T04:40:43;1.55;;;0.75;;
65732;SDS011;70156;-35.366;149.082;2023-05-17T04:43:10;0.77;;;0.08;;
65732;SDS011;70156;-35.366;149.082;2023-05-17T04:45:37;0.17;;;0.05;;
65732;SDS011;70156;-35.366;149.082;2023-05-17T04:48:05;1.52;;;0.20;;
65732;SDS011;70156;-35.366;149.082;2023-05-17T04:50:32;1.70;;;0.20;;
65732;SDS011;70156;-35.366;149.082;2023-05-17T04:53:58;0.60;;;0.10;;
65732;SDS011;70156;-35.366;149.082;2023-05-17T04:56:26;2.05;;;0.55;;
65732;SDS011;70156;-35.366;149.082;2023-05-17T04:58:53;0.85;;;0.10;;
65732;SDS011;70156;-35.366;149.082;2023-05-17T05:01:22;0.95;;;0.20;;
65732;SDS011;70156;-35.366;149.082;2023-05-17T05:03:49;0.90;;;0.20;;
65732;SDS011;70156;-35.366;149.082;2023-05-17T05:06:16;3.08;;;0.10;;
65732;SDS011;70156;-35.366;149.082;2023-05-17T05:08:43;1.50;;;0.20;;
65732;SDS011;70156;-35.366;149.082;2023-05-17T05:11:10;0.63;;;0.10;;
65732;SDS011;70156;-35.366;149.082;2023-05-17T05:13:37;0.30;;;0.00;;
65732;SDS011;70156;-35.366;149.082;2023-05-17T05:16:06;1.02;;;0.17;;
65732;SDS011;70156;-35.366;149.082;2023-05-17T05:18:33;0.65;;;0.10;;
65732;SDS011;70156;-35.366;149.082;2023-05-17T05:21:00;0.30;;;0.00;;
65732;SDS011;70156;-35.366;149.082;2023-05-17T05:23:28;0.35;;;0.10;;
65732;SDS011;70156;-35.366;149.082;2023-05-17T05:25:55;1.98;;;0.10;;
65732;SDS011;70156;-35.366;149.082;2023-05-17T05:28:22;1.40;;;0.10;;
65732;SDS011;70156;-35.366;149.082;2023-05-17T05:30:49;0.50;;;0.20;;
65732;SDS011;70156;-35.366;149.082;2023-05-17T05:33:16;1.27;;;0.38;;
65732;SDS011;70156;-35.366;149.082;2023-05-17T05:35:43;0.60;;;0.30;;
65732;SDS011;70156;-35.366;149.082;2023-05-17T05:38:10;2.42;;;0.20;;
65732;SDS011;70156;-35.366;149.082;2023-05-17T05:40:37;2.10;;;0.20;;
65732;SDS011;70156;-35.366;149.082;2023-05-17T05:43:04;1.20;;;0.20;;
65732;SDS011;70156;-35.366;149.082;2023-05-17T05:45:31;0.70;;;0.10;;
65732;SDS011;70156;-35.366;149.082;2023-05-17T05:47:58;0.10;;;0.10;;
65732;SDS011;70156;-35.366;149.082;2023-05-17T05:50:25;1.88;;;0.10;;
65732;SDS011;70156;-35.366;149.082;2023-05-17T05:52:52;0.75;;;0.20;;
65732;SDS011;70156;-35.366;149.082;2023-05-17T05:55:19;1.38;;;0.10;;
65732;SDS011;70156;-35.366;149.082;2023-05-17T05:57:46;1.63;;;0.10;;
65732;SDS011;70156;-35.366;149.082;2023-05-17T06:00:13;0.85;;;0.20;;
65732;SDS011;70156;-35.366;149.082;2023-05-17T06:02:42;0.38;;;0.10;;
65732;SDS011;70156;-35.366;149.082;2023-05-17T06:05:10;3.92;;;0.43;;
65732;SDS011;70156;-35.366;149.082;2023-05-17T06:07:37;1.05;;;0.10;;
65732;SDS011;70156;-35.366;149.082;2023-05-17T06:10:04;3.55;;;0.20;;
65732;SDS011;70156;-35.366;149.082;2023-05-17T06:12:31;2.55;;;0.10;;
65732;SDS011;70156;-35.366;149.082;2023-05-17T06:14:58;1.80;;;0.10;;
65732;SDS011;70156;-35.366;149.082;2023-05-17T06:17:25;0.65;;;0.08;;
65732;SDS011;70156;-35.366;149.082;2023-05-17T06:19:52;0.88;;;0.10;;
65732;SDS011;70156;-35.366;149.082;2023-05-17T06:22:19;2.30;;;0.70;;
65732;SDS011;70156;-35.366;149.082;2023-05-17T06:24:46;0.32;;;0.10;;
65732;SDS011;70156;-35.366;149.082;2023-05-17T06:27:13;0.57;;;0.08;;
65732;SDS011;70156;-35.366;149.082;2023-05-17T06:29:41;1.55;;;0.15;;
65732;SDS011;70156;-35.366;149.082;2023-05-17T06:32:08;4.22;;;0.30;;
65732;SDS011;70156;-35.366;149.082;2023-05-17T06:34:35;0.82;;;0.50;;
65732;SDS011;70156;-35.366;149.082;2023-05-17T06:37:02;0.52;;;0.10;;
65732;SDS011;70156;-35.366;149.082;2023-05-17T06:39:29;0.45;;;0.10;;
65732;SDS011;70156;-35.366;149.082;2023-05-17T06:41:56;2.38;;;0.10;;
65732;SDS011;70156;-35.366;149.082;2023-05-17T06:44:23;2.33;;;0.57;;
65732;SDS011;70156;-35.366;149.082;2023-05-17T06:46:50;1.67;;;0.10;;
65732;SDS011;70156;-35.366;149.082;2023-05-17T06:49:17;0.60;;;0.20;;
65732;SDS011;70156;-35.366;149.082;2023-05-17T06:51:44;0.10;;;0.00;;
65732;SDS011;70156;-35.366;149.082;2023-05-17T06:54:13;2.70;;;0.28;;
65732;SDS011;70156;-35.366;149.082;2023-05-17T06:56:41;0.68;;;0.20;;
65732;SDS011;70156;-35.366;149.082;2023-05-17T06:59:08;1.27;;;0.63;;
65732;SDS011;70156;-35.366;149.082;2023-05-17T07:01:36;0.95;;;0.10;;
65732;SDS011;70156;-35.366;149.082;2023-05-17T07:04:04;0.40;;;0.20;;
65732;SDS011;70156;-35.366;149.082;2023-05-17T07:06:31;1.52;;;0.20;;
65732;SDS011;70156;-35.366;149.082;2023-05-17T07:08:58;2.72;;;0.60;;
65732;SDS011;70156;-35.366;149.082;2023-05-17T07:11:25;2.03;;;0.13;;
65732;SDS011;70156;-35.366;149.082;2023-05-17T07:13:52;0.63;;;0.03;;
65732;SDS011;70156;-35.366;149.082;2023-05-17T07:16:19;3.10;;;0.30;;
65732;SDS011;70156;-35.366;149.082;2023-05-17T07:18:46;2.33;;;0.35;;
65732;SDS011;70156;-35.366;149.082;2023-05-17T07:21:13;2.47;;;0.73;;
65732;SDS011;70156;-35.366;149.082;2023-05-17T07:23:40;2.40;;;0.45;;
65732;SDS011;70156;-35.366;149.082;2023-05-17T07:26:07;1.50;;;0.22;;
65732;SDS011;70156;-35.366;149.082;2023-05-17T07:28:34;0.60;;;0.10;;
65732;SDS011;70156;-35.366;149.082;2023-05-17T07:31:01;3.13;;;0.17;;
65732;SDS011;70156;-35.366;149.082;2023-05-17T07:33:28;6.03;;;0.88;;
65732;SDS011;70156;-35.366;149.082;2023-05-17T07:35:56;0.50;;;0.20;;
65732;SDS011;70156;-35.366;149.082;2023-05-17T07:38:22;2.13;;;1.02;;
65732;SDS011;70156;-35.366;149.082;2023-05-17T07:40:50;0.57;;;0.20;;
65732;SDS011;70156;-35.366;149.082;2023-05-17T07:43:17;1.77;;;0.63;;
65732;SDS011;70156;-35.366;149.082;2023-05-17T07:45:44;0.88;;;0.20;;
65732;SDS011;70156;-35.366;149.082;2023-05-17T07:48:12;2.38;;;0.25;;
65732;SDS011;70156;-35.366;149.082;2023-05-17T07:50:39;1.73;;;0.28;;
65732;SDS011;70156;-35.366;149.082;2023-05-17T07:53:08;3.00;;;0.52;;
65732;SDS011;70156;-35.366;149.082;2023-05-17T07:55:35;1.35;;;0.30;;
65732;SDS011;70156;-35.366;149.082;2023-05-17T07:58:02;2.75;;;0.30;;
65732;SDS011;70156;-35.366;149.082;2023-05-17T08:00:29;0.63;;;0.10;;
65732;SDS011;70156;-35.366;149.082;2023-05-17T08:02:57;0.68;;;0.30;;
65732;SDS011;70156;-35.366;149.082;2023-05-17T08:05:24;2.75;;;0.30;;
65732;SDS011;70156;-35.366;149.082;2023-05-17T08:07:51;0.75;;;0.20;;
65732;SDS011;70156;-35.366;149.082;2023-05-17T08:10:18;0.75;;;0.17;;
65732;SDS011;70156;-35.366;149.082;2023-05-17T08:12:45;2.45;;;0.20;;
65732;SDS011;70156;-35.366;149.082;2023-05-17T08:15:12;2.72;;;0.30;;
65732;SDS011;70156;-35.366;149.082;2023-05-17T08:17:40;1.80;;;0.38;;
65732;SDS011;70156;-35.366;149.082;2023-05-17T08:20:07;2.05;;;0.63;;
65732;SDS011;70156;-35.366;149.082;2023-05-17T08:22:34;2.78;;;0.20;;
65732;SDS011;70156;-35.366;149.082;2023-05-17T08:25:02;1.45;;;0.43;;
65732;SDS011;70156;-35.366;149.082;2023-05-17T08:27:32;2.53;;;0.20;;
65732;SDS011;70156;-35.366;149.082;2023-05-17T08:29:59;0.52;;;0.28;;
65732;SDS011;70156;-35.366;149.082;2023-05-17T08:32:46;0.75;;;0.20;;
65732;SDS011;70156;-35.366;149.082;2023-05-17T08:35:13;1.17;;;0.52;;
65732;SDS011;70156;-35.366;149.082;2023-05-17T08:37:40;0.45;;;0.13;;
65732;SDS011;70156;-35.366;149.082;2023-05-17T08:40:07;1.35;;;0.47;;
65732;SDS011;70156;-35.366;149.082;2023-05-17T08:42:35;1.42;;;0.22;;
65732;SDS011;70156;-35.366;149.082;2023-05-17T08:45:03;1.98;;;0.40;;
65732;SDS011;70156;-35.366;149.082;2023-05-17T08:47:33;0.60;;;0.22;;
65732;SDS011;70156;-35.366;149.082;2023-05-17T08:50:02;1.35;;;0.20;;
65732;SDS011;70156;-35.366;149.082;2023-05-17T08:52:30;0.98;;;0.22;;
65732;SDS011;70156;-35.366;149.082;2023-05-17T08:54:58;1.02;;;0.40;;
65732;SDS011;70156;-35.366;149.082;2023-05-17T08:57:33;0.90;;;0.20;;
65732;SDS011;70156;-35.366;149.082;2023-05-17T09:00:04;2.85;;;0.10;;
65732;SDS011;70156;-35.366;149.082;2023-05-17T09:02:52;2.00;;;0.50;;
65732;SDS011;70156;-35.366;149.082;2023-05-17T09:05:19;1.90;;;0.20;;
65732;SDS011;70156;-35.366;149.082;2023-05-17T09:07:46;2.13;;;0.47;;
65732;SDS011;70156;-35.366;149.082;2023-05-17T09:10:14;3.15;;;0.30;;
65732;SDS011;70156;-35.366;149.082;2023-05-17T09:12:42;2.25;;;0.30;;
65732;SDS011;70156;-35.366;149.082;2023-05-17T09:15:16;3.08;;;0.25;;
65732;SDS011;70156;-35.366;149.082;2023-05-17T09:17:51;0.88;;;0.10;;
65732;SDS011;70156;-35.366;149.082;2023-05-17T09:20:22;1.02;;;0.30;;
65732;SDS011;70156;-35.366;149.082;2023-05-17T09:22:50;2.67;;;0.30;;
65732;SDS011;70156;-35.366;149.082;2023-05-17T09:25:22;2.35;;;0.60;;
65732;SDS011;70156;-35.366;149.082;2023-05-17T09:27:52;1.45;;;0.30;;
65732;SDS011;70156;-35.366;149.082;2023-05-17T09:30:26;1.90;;;0.50;;
65732;SDS011;70156;-35.366;149.082;2023-05-17T09:33:01;0.73;;;0.40;;
65732;SDS011;70156;-35.366;149.082;2023-05-17T09:35:36;1.80;;;0.45;;
65732;SDS011;70156;-35.366;149.082;2023-05-17T09:38:07;2.25;;;0.50;;
65732;SDS011;70156;-35.366;149.082;2023-05-17T09:40:41;0.73;;;0.22;;
65732;SDS011;70156;-35.366;149.082;2023-05-17T09:43:10;3.85;;;0.60;;
65732;SDS011;70156;-35.366;149.082;2023-05-17T09:45:38;0.28;;;0.22;;
65732;SDS011;70156;-35.366;149.082;2023-05-17T09:48:15;1.85;;;0.52;;
65732;SDS011;70156;-35.366;149.082;2023-05-17T09:50:47;0.20;;;0.20;;
65732;SDS011;70156;-35.366;149.082;2023-05-17T09:55:49;1.25;;;0.43;;
65732;SDS011;70156;-35.366;149.082;2023-05-17T09:58:22;0.47;;;0.30;;
65732;SDS011;70156;-35.366;149.082;2023-05-17T10:00:53;4.25;;;0.95;;
65732;SDS011;70156;-35.366;149.082;2023-05-17T10:03:35;1.85;;;0.40;;
65732;SDS011;70156;-35.366;149.082;2023-05-17T10:06:12;1.00;;;0.30;;
65732;SDS011;70156;-35.366;149.082;2023-05-17T10:09:20;0.90;;;0.28;;
65732;SDS011;70156;-35.366;149.082;2023-05-17T10:12:45;1.73;;;0.50;;
65732;SDS011;70156;-35.366;149.082;2023-05-17T10:16:11;3.15;;;0.50;;
65732;SDS011;70156;-35.366;149.082;2023-05-17T10:18:39;3.45;;;0.20;;
65732;SDS011;70156;-35.366;149.082;2023-05-17T10:22:05;0.82;;;0.50;;
65732;SDS011;70156;-35.366;149.082;2023-05-17T10:25:25;0.40;;;0.22;;
65732;SDS011;70156;-35.366;149.082;2023-05-17T10:27:52;0.73;;;0.50;;
65732;SDS011;70156;-35.366;149.082;2023-05-17T10:30:19;4.13;;;0.60;;
65732;SDS011;70156;-35.366;149.082;2023-05-17T10:32:48;1.30;;;0.68;;
65732;SDS011;70156;-35.366;149.082;2023-05-17T10:35:17;1.65;;;0.40;;
65732;SDS011;70156;-35.366;149.082;2023-05-17T10:37:44;1.65;;;0.52;;
65732;SDS011;70156;-35.366;149.082;2023-05-17T10:40:12;1.52;;;0.57;;
65732;SDS011;70156;-35.366;149.082;2023-05-17T10:42:40;1.58;;;0.52;;
65732;SDS011;70156;-35.366;149.082;2023-05-17T10:45:10;0.90;;;0.57;;
65732;SDS011;70156;-35.366;149.082;2023-05-17T10:47:38;0.90;;;0.50;;
65732;SDS011;70156;-35.366;149.082;2023-05-17T10:50:09;2.40;;;0.60;;
65732;SDS011;70156;-35.366;149.082;2023-05-17T10:52:47;1.27;;;0.43;;
65732;SDS011;70156;-35.366;149.082;2023-05-17T10:55:18;3.15;;;0.50;;
65732;SDS011;70156;-35.366;149.082;2023-05-17T10:57:56;3.85;;;0.68;;
65732;SDS011;70156;-35.366;149.082;2023-05-17T11:00:51;2.58;;;0.90;;
65732;SDS011;70156;-35.366;149.082;2023-05-17T11:03:19;0.93;;;0.50;;
65732;SDS011;70156;-35.366;149.082;2023-05-17T11:08:43;0.95;;;0.32;;
65732;SDS011;70156;-35.366;149.082;2023-05-17T11:12:06;1.20;;;0.30;;
65732;SDS011;70156;-35.366;149.082;2023-05-17T11:17:12;1.45;;;0.25;;
65732;SDS011;70156;-35.366;149.082;2023-05-17T11:22:38;2.05;;;0.65;;
65732;SDS011;70156;-35.366;149.082;2023-05-17T11:25:11;1.75;;;0.47;;
65732;SDS011;70156;-35.366;149.082;2023-05-17T11:27:43;5.45;;;0.60;;
65732;SDS011;70156;-35.366;149.082;2023-05-17T11:30:23;1.65;;;0.50;;
65732;SDS011;70156;-35.366;149.082;2023-05-17T11:33:02;2.15;;;0.75;;
65732;SDS011;70156;-35.366;149.082;2023-05-17T11:35:33;1.17;;;0.60;;
65732;SDS011;70156;-35.366;149.082;2023-05-17T11:41:00;0.95;;;0.65;;
65732;SDS011;70156;-35.366;149.082;2023-05-17T11:43:46;1.85;;;0.60;;
65732;SDS011;70156;-35.366;149.082;2023-05-17T11:46:21;1.42;;;0.60;;
65732;SDS011;70156;-35.366;149.082;2023-05-17T11:48:52;2.65;;;0.80;;
65732;SDS011;70156;-35.366;149.082;2023-05-17T11:51:20;3.20;;;1.45;;
65732;SDS011;70156;-35.366;149.082;2023-05-17T11:53:48;1.30;;;0.68;;
65732;SDS011;70156;-35.366;149.082;2023-05-17T11:56:15;2.67;;;1.13;;
65732;SDS011;70156;-35.366;149.082;2023-05-17T11:58:44;1.00;;;0.70;;
65732;SDS011;70156;-35.366;149.082;2023-05-17T12:01:15;3.03;;;0.60;;
65732;SDS011;70156;-35.366;149.082;2023-05-17T12:03:42;3.08;;;0.98;;
65732;SDS011;70156;-35.366;149.082;2023-05-17T12:06:14;2.13;;;1.00;;
65732;SDS011;70156;-35.366;149.082;2023-05-17T12:08:43;1.67;;;0.80;;
65732;SDS011;70156;-35.366;149.082;2023-05-17T12:11:12;2.72;;;0.90;;
65732;SDS011;70156;-35.366;149.082;2023-05-17T12:13:41;2.80;;;1.10;;
65732;SDS011;70156;-35.366;149.082;2023-05-17T12:16:11;2.08;;;0.90;;
65732;SDS011;70156;-35.366;149.082;2023-05-17T12:18:40;2.50;;;0.60;;
65732;SDS011;70156;-35.366;149.082;2023-05-17T12:21:11;4.53;;;1.10;;
65732;SDS011;70156;-35.366;149.082;2023-05-17T12:24:36;4.43;;;0.75;;
65732;SDS011;70156;-35.366;149.082;2023-05-17T12:27:04;0.98;;;0.57;;
65732;SDS011;70156;-35.366;149.082;2023-05-17T12:29:32;1.40;;;0.90;;
65732;SDS011;70156;-35.366;149.082;2023-05-17T12:31:59;2.42;;;0.85;;
65732;SDS011;70156;-35.366;149.082;2023-05-17T12:34:27;1.00;;;0.50;;
65732;SDS011;70156;-35.366;149.082;2023-05-17T12:36:56;1.30;;;0.68;;
65732;SDS011;70156;-35.366;149.082;2023-05-17T12:39:24;2.30;;;0.40;;
65732;SDS011;70156;-35.366;149.082;2023-05-17T12:41:51;1.63;;;0.50;;
65732;SDS011;70156;-35.366;149.082;2023-05-17T12:44:19;3.13;;;0.43;;
65732;SDS011;70156;-35.366;149.082;2023-05-17T12:46:47;0.75;;;0.40;;
65732;SDS011;70156;-35.366;149.082;2023-05-17T12:49:23;1.95;;;0.52;;
65732;SDS011;70156;-35.366;149.082;2023-05-17T12:51:50;2.33;;;0.50;;
65732;SDS011;70156;-35.366;149.082;2023-05-17T12:54:25;0.77;;;0.40;;
65732;SDS011;70156;-35.366;149.082;2023-05-17T12:56:53;2.13;;;0.70;;
65732;SDS011;70156;-35.366;149.082;2023-05-17T12:59:21;2.22;;;0.30;;
65732;SDS011;70156;-35.366;149.082;2023-05-17T13:01:56;2.47;;;0.32;;
65732;SDS011;70156;-35.366;149.082;2023-05-17T13:04:31;2.40;;;0.45;;
65732;SDS011;70156;-35.366;149.082;2023-05-17T13:07:01;1.95;;;0.43;;
65732;SDS011;70156;-35.366;149.082;2023-05-17T13:09:30;1.42;;;0.57;;
65732;SDS011;70156;-35.366;149.082;2023-05-17T13:12:22;2.05;;;0.40;;
65732;SDS011;70156;-35.366;149.082;2023-05-17T13:14:51;3.13;;;0.40;;
65732;SDS011;70156;-35.366;149.082;2023-05-17T13:19:50;1.13;;;0.70;;
65732;SDS011;70156;-35.366;149.082;2023-05-17T13:22:17;1.75;;;0.50;;
65732;SDS011;70156;-35.366;149.082;2023-05-17T13:24:44;1.92;;;0.60;;
65732;SDS011;70156;-35.366;149.082;2023-05-17T13:27:11;1.85;;;0.68;;
65732;SDS011;70156;-35.366;149.082;2023-05-17T13:29:39;1.10;;;0.52;;
65732;SDS011;70156;-35.366;149.082;2023-05-17T13:32:52;3.40;;;0.70;;
65732;SDS011;70156;-35.366;149.082;2023-05-17T13:35:20;2.53;;;0.77;;
65732;SDS011;70156;-35.366;149.082;2023-05-17T13:37:47;5.22;;;0.80;;
65732;SDS011;70156;-35.366;149.082;2023-05-17T13:40:14;3.00;;;0.70;;
65732;SDS011;70156;-35.366;149.082;2023-05-17T13:42:42;1.00;;;0.60;;
65732;SDS011;70156;-35.366;149.082;2023-05-17T13:45:10;3.28;;;0.90;;
65732;SDS011;70156;-35.366;149.082;2023-05-17T13:47:38;2.42;;;0.93;;
65732;SDS011;70156;-35.366;149.082;2023-05-17T13:50:05;1.42;;;0.80;;
65732;SDS011;70156;-35.366;149.082;2023-05-17T13:52:32;2.60;;;0.90;;
65732;SDS011;70156;-35.366;149.082;2023-05-17T13:54:59;4.22;;;1.33;;
65732;SDS011;70156;-35.366;149.082;2023-05-17T13:57:26;1.73;;;0.90;;
65732;SDS011;70156;-35.366;149.082;2023-05-17T13:59:53;2.72;;;1.30;;
65732;SDS011;70156;-35.366;149.082;2023-05-17T14:02:20;3.95;;;1.08;;
65732;SDS011;70156;-35.366;149.082;2023-05-17T14:04:47;2.47;;;1.10;;
65732;SDS011;70156;-35.366;149.082;2023-05-17T14:07:15;3.72;;;1.23;;
65732;SDS011;70156;-35.366;149.082;2023-05-17T14:09:42;3.20;;;1.35;;
65732;SDS011;70156;-35.366;149.082;2023-05-17T14:12:44;3.40;;;1.55;;
65732;SDS011;70156;-35.366;149.082;2023-05-17T14:15:11;4.85;;;1.73;;
65732;SDS011;70156;-35.366;149.082;2023-05-17T14:17:38;4.60;;;1.90;;
65732;SDS011;70156;-35.366;149.082;2023-05-17T14:20:05;3.35;;;1.90;;
65732;SDS011;70156;-35.366;149.082;2023-05-17T14:22:33;3.67;;;2.00;;
65732;SDS011;70156;-35.366;149.082;2023-05-17T14:25:00;3.20;;;1.80;;
65732;SDS011;70156;-35.366;149.082;2023-05-17T14:28:27;3.38;;;1.75;;
65732;SDS011;70156;-35.366;149.082;2023-05-17T14:30:54;3.38;;;2.33;;
65732;SDS011;70156;-35.366;149.082;2023-05-17T14:33:21;4.18;;;2.47;;
65732;SDS011;70156;-35.366;149.082;2023-05-17T14:35:48;4.05;;;1.98;;
65732;SDS011;70156;-35.366;149.082;2023-05-17T14:38:15;8.20;;;2.40;;
65732;SDS011;70156;-35.366;149.082;2023-05-17T14:40:47;3.63;;;2.20;;
65732;SDS011;70156;-35.366;149.082;2023-05-17T14:43:14;5.30;;;2.85;;
65732;SDS011;70156;-35.366;149.082;2023-05-17T14:45:41;4.25;;;2.72;;
65732;SDS011;70156;-35.366;149.082;2023-05-17T14:48:08;2.83;;;2.22;;
65732;SDS011;70156;-35.366;149.082;2023-05-17T14:50:38;3.60;;;2.30;;
65732;SDS011;70156;-35.366;149.082;2023-05-17T14:53:05;5.63;;;2.55;;
65732;SDS011;70156;-35.366;149.082;2023-05-17T14:55:32;5.60;;;2.90;;
65732;SDS011;70156;-35.366;149.082;2023-05-17T14:58:02;6.57;;;2.83;;
65732;SDS011;70156;-35.366;149.082;2023-05-17T15:00:29;6.63;;;2.78;;
65732;SDS011;70156;-35.366;149.082;2023-05-17T15:02:56;6.30;;;2.67;;
65732;SDS011;70156;-35.366;149.082;2023-05-17T15:05:23;3.60;;;2.70;;